Aeroporto :
LOGIN :

Iscrizione | Disclaimer

   EN    FR    IT 

 










Sommario :    VFR   VFR Marginale   IFR   IFR Intensivo   IFR Molto Intensivo
Visibilità : 
Base nubi : 
>= 8 km
>= 3000ft
5 / 8 km
1000 / 3000 ft
1500m / 5 km
500 / 1000 ft
800 / 1500m
200 / 500 ft
< 800m
< 200 ft
Simboli :   Temporali  Nebbia  Neve Forte  Precipitazioni Forti  Vento > 20 kt
SIGMETs :   Varie  Temporali  Ghiacco  Turbolenza  Onda orograficha  Ceneri Vulcaniche






- Altitudine del aeroporto : 126 ft
- Codice IATA : TIA


LATI - Rinas Mother Teresa Arpt - Tirana

ULTIMO METAR :
  • 050350Z 07001KT 9999 FEW078 BKN100 14/11 Q1010 NOSIG

METARs OBSOLETI :
  • 050320Z VRB02KT CAVOK 13/11 Q1010 NOSIG
  • 050250Z 23002KT CAVOK 13/10 Q1009 NOSIG
  • 050220Z 25002KT CAVOK 13/11 Q1009 NOSIG
  • 050150Z 15004KT CAVOK 13/10 Q1010 NOSIG
  • 050120Z 18004KT CAVOK 13/10 Q1010 NOSIG

TAF TAF LATI
Valido dal 05 a 00 ore il 06 a 00 ore UTC


042300Z 0500/0524 17010KT CAVOK TX26/0512Z TN14/0504Z
BECMG 0510/0513 SCT030 BKN100



MetMap, La meteo Aeronautica in un colpo d'occhio ! - Copyright ORBIFLY Dicembre 2007 - Disclaimer

ORBIFLY MET'MAP TEAM :

Programmazione e sviluppo : Alexandra Zaïnal
Concezione : Baudouin d'Aumeries
Aiuto per la programmazione : Marc-Olivier Méhu
Supporto tecnico e logistico : Manuel Goepfert
Aiuto per la traduzione : Arnaldo La Scala

Contatto : metmap@orbifly.com




FONTI E CREDITI :

   NOAA